sensor_id;sensor_type;location;lat;lon;timestamp;pressure;altitude;pressure_sealevel;temperature;humidity
69980;BME280;57318;56.232;43.944;2022-12-10T00:01:26;99401.72;;;-4.48;89.67
69980;BME280;57318;56.232;43.944;2022-12-10T00:03:52;99392.09;;;-4.43;89.41
69980;BME280;57318;56.232;43.944;2022-12-10T00:06:26;99396.44;;;-4.44;89.52
69980;BME280;57318;56.232;43.944;2022-12-10T00:08:52;99400.75;;;-4.43;89.58
69980;BME280;57318;56.232;43.944;2022-12-10T00:11:19;99392.94;;;-4.41;89.74
69980;BME280;57318;56.232;43.944;2022-12-10T00:13:47;99391.22;;;-4.41;89.36
69980;BME280;57318;56.232;43.944;2022-12-10T00:16:14;99386.88;;;-4.42;89.68
69980;BME280;57318;56.232;43.944;2022-12-10T00:18:41;99391.22;;;-4.41;89.67
69980;BME280;57318;56.232;43.944;2022-12-10T00:21:09;99380.81;;;-4.39;89.75
69980;BME280;57318;56.232;43.944;2022-12-10T00:23:36;99381.63;;;-4.39;89.60
69980;BME280;57318;56.232;43.944;2022-12-10T00:26:02;99376.41;;;-4.36;89.57
69980;BME280;57318;56.232;43.944;2022-12-10T00:28:28;99372.19;;;-4.41;89.74
69980;BME280;57318;56.232;43.944;2022-12-10T00:30:53;99373.91;;;-4.42;89.81
69980;BME280;57318;56.232;43.944;2022-12-10T00:33:19;99372.16;;;-4.40;89.95
69980;BME280;57318;56.232;43.944;2022-12-10T00:35:44;99376.47;;;-4.40;90.08
69980;BME280;57318;56.232;43.944;2022-12-10T00:38:10;99375.56;;;-4.36;90.01
69980;BME280;57318;56.232;43.944;2022-12-10T00:40:35;99385.03;;;-4.33;90.05
69980;BME280;57318;56.232;43.944;2022-12-10T00:43:01;99378.06;;;-4.31;89.89
69980;BME280;57318;56.232;43.944;2022-12-10T00:45:27;99378.91;;;-4.31;89.97
69980;BME280;57318;56.232;43.944;2022-12-10T00:47:52;99376.28;;;-4.29;89.84
69980;BME280;57318;56.232;43.944;2022-12-10T00:50:18;99374.59;;;-4.30;89.72
69980;BME280;57318;56.232;43.944;2022-12-10T00:52:43;99367.66;;;-4.30;89.92
69980;BME280;57318;56.232;43.944;2022-12-10T00:55:09;99372.88;;;-4.31;89.69
69980;BME280;57318;56.232;43.944;2022-12-10T00:57:34;99365.91;;;-4.29;90.03
69980;BME280;57318;56.232;43.944;2022-12-10T01:00:00;99370.16;;;-4.25;89.91
69980;BME280;57318;56.232;43.944;2022-12-10T01:02:25;99353.84;;;-4.30;89.81
69980;BME280;57318;56.232;43.944;2022-12-10T01:04:54;99364.16;;;-4.27;89.98
69980;BME280;57318;56.232;43.944;2022-12-10T01:07:19;99354.56;;;-4.25;89.86
69980;BME280;57318;56.232;43.944;2022-12-10T01:09:45;99362.41;;;-4.27;89.68
69980;BME280;57318;56.232;43.944;2022-12-10T01:12:10;99345.06;;;-4.26;89.76
69980;BME280;57318;56.232;43.944;2022-12-10T01:14:36;99358.88;;;-4.24;89.81
69980;BME280;57318;56.232;43.944;2022-12-10T01:17:04;99353.69;;;-4.24;89.98
69980;BME280;57318;56.232;43.944;2022-12-10T01:19:31;99361.50;;;-4.24;89.87
69980;BME280;57318;56.232;43.944;2022-12-10T01:21:57;99361.50;;;-4.24;89.96
69980;BME280;57318;56.232;43.944;2022-12-10T01:24:25;99354.50;;;-4.22;89.70
69980;BME280;57318;56.232;43.944;2022-12-10T01:26:51;99357.22;;;-4.27;89.69
69980;BME280;57318;56.232;43.944;2022-12-10T01:29:17;99357.22;;;-4.28;90.06
69980;BME280;57318;56.232;43.944;2022-12-10T01:31:43;99349.34;;;-4.24;90.12
69980;BME280;57318;56.232;43.944;2022-12-10T01:34:13;99350.25;;;-4.26;89.76
69980;BME280;57318;56.232;43.944;2022-12-10T01:36:41;99349.25;;;-4.19;89.45
69980;BME280;57318;56.232;43.944;2022-12-10T01:39:09;99356.16;;;-4.18;89.11
69980;BME280;57318;56.232;43.944;2022-12-10T01:41:45;99345.91;;;-4.24;89.25
69980;BME280;57318;56.232;43.944;2022-12-10T01:46:41;99344.19;;;-4.25;89.44
69980;BME280;57318;56.232;43.944;2022-12-10T01:49:13;99356.34;;;-4.26;89.66
69980;BME280;57318;56.232;43.944;2022-12-10T01:51:41;99351.97;;;-4.25;89.46
69980;BME280;57318;56.232;43.944;2022-12-10T01:54:11;99352.78;;;-4.23;89.55
69980;BME280;57318;56.232;43.944;2022-12-10T01:56:40;99339.88;;;-4.26;89.28
69980;BME280;57318;56.232;43.944;2022-12-10T01:59:07;99346.81;;;-4.27;89.57
69980;BME280;57318;56.232;43.944;2022-12-10T02:06:54;99340.81;;;-4.29;89.09
69980;BME280;57318;56.232;43.944;2022-12-10T02:12:17;99348.66;;;-4.32;89.27
69980;BME280;57318;56.232;43.944;2022-12-10T02:17:26;99339.97;;;-4.31;89.03
69980;BME280;57318;56.232;43.944;2022-12-10T02:22:30;99340.84;;;-4.30;88.85
69980;BME280;57318;56.232;43.944;2022-12-10T02:24:57;99349.53;;;-4.31;88.62
69980;BME280;57318;56.232;43.944;2022-12-10T02:27:49;99352.09;;;-4.31;88.38
69980;BME280;57318;56.232;43.944;2022-12-10T02:30:18;99347.75;;;-4.31;88.46
69980;BME280;57318;56.232;43.944;2022-12-10T02:32:46;99356.44;;;-4.30;88.01
69980;BME280;57318;56.232;43.944;2022-12-10T02:35:20;99346.06;;;-4.32;88.20
69980;BME280;57318;56.232;43.944;2022-12-10T02:37:55;99355.66;;;-4.36;87.98
69980;BME280;57318;56.232;43.944;2022-12-10T02:40:29;99352.09;;;-4.31;87.98
69980;BME280;57318;56.232;43.944;2022-12-10T02:42:56;99363.41;;;-4.36;88.29
69980;BME280;57318;56.232;43.944;2022-12-10T02:45:23;99351.34;;;-4.37;88.04
69980;BME280;57318;56.232;43.944;2022-12-10T02:47:53;99333.25;;;-4.40;87.92
69980;BME280;57318;56.232;43.944;2022-12-10T02:50:21;99341.84;;;-4.38;87.77
69980;BME280;57318;56.232;43.944;2022-12-10T02:52:47;99340.13;;;-4.39;87.46
69980;BME280;57318;56.232;43.944;2022-12-10T02:55:13;99334.09;;;-4.39;87.41
69980;BME280;57318;56.232;43.944;2022-12-10T03:00:18;99345.47;;;-4.45;87.46
69980;BME280;57318;56.232;43.944;2022-12-10T03:10:55;99337.84;;;-4.53;87.71
69980;BME280;57318;56.232;43.944;2022-12-10T03:13:37;99336.13;;;-4.54;87.31
69980;BME280;57318;56.232;43.944;2022-12-10T03:16:04;99336.13;;;-4.54;87.42
69980;BME280;57318;56.232;43.944;2022-12-10T03:18:34;99324.91;;;-4.54;87.25
69980;BME280;57318;56.232;43.944;2022-12-10T03:21:03;99336.13;;;-4.54;87.20
69980;BME280;57318;56.232;43.944;2022-12-10T03:23:30;99324.91;;;-4.54;87.44
69980;BME280;57318;56.232;43.944;2022-12-10T03:25:58;99330.16;;;-4.57;87.59
69980;BME280;57318;56.232;43.944;2022-12-10T03:28:25;99330.09;;;-4.54;87.18
69980;BME280;57318;56.232;43.944;2022-12-10T03:30:52;99339.63;;;-4.56;87.15
69980;BME280;57318;56.232;43.944;2022-12-10T03:33:20;99349.13;;;-4.55;87.13
69980;BME280;57318;56.232;43.944;2022-12-10T03:35:46;99332.75;;;-4.57;87.21
69980;BME280;57318;56.232;43.944;2022-12-10T03:38:12;99335.34;;;-4.57;86.89
69980;BME280;57318;56.232;43.944;2022-12-10T03:40:39;99339.66;;;-4.58;86.67
69980;BME280;57318;56.232;43.944;2022-12-10T03:43:04;99333.69;;;-4.61;86.99
69980;BME280;57318;56.232;43.944;2022-12-10T03:45:30;99331.91;;;-4.59;86.74
69980;BME280;57318;56.232;43.944;2022-12-10T03:47:56;99351.00;;;-4.62;86.50
69980;BME280;57318;56.232;43.944;2022-12-10T03:50:21;99344.94;;;-4.62;87.06
69980;BME280;57318;56.232;43.944;2022-12-10T03:52:47;99336.34;;;-4.64;86.99
69980;BME280;57318;56.232;43.944;2022-12-10T03:55:12;99350.09;;;-4.61;86.78
69980;BME280;57318;56.232;43.944;2022-12-10T03:57:38;99363.09;;;-4.62;86.67
69980;BME280;57318;56.232;43.944;2022-12-10T04:00:05;99360.59;;;-4.67;86.80
69980;BME280;57318;56.232;43.944;2022-12-10T04:02:30;99348.56;;;-4.69;86.62
69980;BME280;57318;56.232;43.944;2022-12-10T04:04:56;99356.34;;;-4.69;86.84
69980;BME280;57318;56.232;43.944;2022-12-10T04:07:22;99358.97;;;-4.71;86.66
69980;BME280;57318;56.232;43.944;2022-12-10T04:09:47;99352.00;;;-4.69;86.84
69980;BME280;57318;56.232;43.944;2022-12-10T04:12:13;99357.19;;;-4.69;86.39
69980;BME280;57318;56.232;43.944;2022-12-10T04:14:38;99355.56;;;-4.73;86.89
69980;BME280;57318;56.232;43.944;2022-12-10T04:17:22;99365.88;;;-4.72;86.46
69980;BME280;57318;56.232;43.944;2022-12-10T04:19:48;99345.22;;;-4.75;86.67
69980;BME280;57318;56.232;43.944;2022-12-10T04:22:13;99351.22;;;-4.74;86.77
69980;BME280;57318;56.232;43.944;2022-12-10T04:24:58;99355.56;;;-4.75;86.70
69980;BME280;57318;56.232;43.944;2022-12-10T04:27:42;99346.03;;;-4.73;86.55
69980;BME280;57318;56.232;43.944;2022-12-10T04:30:10;99360.72;;;-4.72;86.33
69980;BME280;57318;56.232;43.944;2022-12-10T04:32:36;99359.84;;;-4.74;86.24
69980;BME280;57318;56.232;43.944;2022-12-10T04:35:02;99363.34;;;-4.75;86.34
69980;BME280;57318;56.232;43.944;2022-12-10T04:37:28;99359.06;;;-4.77;86.28
69980;BME280;57318;56.232;43.944;2022-12-10T04:39:54;99356.44;;;-4.76;86.41
69980;BME280;57318;56.232;43.944;2022-12-10T04:42:21;99355.59;;;-4.76;86.34
69980;BME280;57318;56.232;43.944;2022-12-10T04:44:47;99360.84;;;-4.79;86.85
69980;BME280;57318;56.232;43.944;2022-12-10T04:47:13;99371.25;;;-4.81;86.64
69980;BME280;57318;56.232;43.944;2022-12-10T04:49:38;99358.28;;;-4.81;86.59
69980;BME280;57318;56.232;43.944;2022-12-10T04:52:05;99359.94;;;-4.78;86.38
69980;BME280;57318;56.232;43.944;2022-12-10T04:54:31;99355.59;;;-4.76;86.43
69980;BME280;57318;56.232;43.944;2022-12-10T04:56:57;99349.59;;;-4.80;86.40
69980;BME280;57318;56.232;43.944;2022-12-10T04:59:23;99340.91;;;-4.76;86.53
69980;BME280;57318;56.232;43.944;2022-12-10T05:01:48;99341.78;;;-4.77;86.05
69980;BME280;57318;56.232;43.944;2022-12-10T05:04:16;99358.28;;;-4.81;86.40
69980;BME280;57318;56.232;43.944;2022-12-10T05:06:44;99346.25;;;-4.85;86.57
69980;BME280;57318;56.232;43.944;2022-12-10T05:09:11;99340.19;;;-4.84;86.32
69980;BME280;57318;56.232;43.944;2022-12-10T05:11:37;99353.97;;;-4.82;86.29
69980;BME280;57318;56.232;43.944;2022-12-10T05:14:03;99358.28;;;-4.81;86.16
69980;BME280;57318;56.232;43.944;2022-12-10T05:16:30;99353.13;;;-4.82;86.26
69980;BME280;57318;56.232;43.944;2022-12-10T05:18:57;99356.56;;;-4.82;86.24
69980;BME280;57318;56.232;43.944;2022-12-10T05:21:25;99372.09;;;-4.80;86.56
69980;BME280;57318;56.232;43.944;2022-12-10T05:24:11;99367.75;;;-4.80;86.47
69980;BME280;57318;56.232;43.944;2022-12-10T05:26:36;99370.41;;;-4.83;86.29
69980;BME280;57318;56.232;43.944;2022-12-10T05:29:02;99364.31;;;-4.80;86.21
69980;BME280;57318;56.232;43.944;2022-12-10T05:31:29;99353.03;;;-4.78;86.20
69980;BME280;57318;56.232;43.944;2022-12-10T05:33:57;99355.59;;;-4.76;86.09
69980;BME280;57318;56.232;43.944;2022-12-10T05:36:25;99340.91;;;-4.76;86.27
69980;BME280;57318;56.232;43.944;2022-12-10T05:38:51;99334.88;;;-4.76;85.97
69980;BME280;57318;56.232;43.944;2022-12-10T05:41:20;99327.13;;;-4.78;86.23
69980;BME280;57318;56.232;43.944;2022-12-10T05:43:46;99328.78;;;-4.75;86.11
69980;BME280;57318;56.232;43.944;2022-12-10T05:46:15;99331.50;;;-4.81;86.14
69980;BME280;57318;56.232;43.944;2022-12-10T05:48:41;99332.28;;;-4.76;86.44
69980;BME280;57318;56.232;43.944;2022-12-10T05:51:11;99334.84;;;-4.75;86.43
69980;BME280;57318;56.232;43.944;2022-12-10T05:53:37;99345.16;;;-4.72;86.01
69980;BME280;57318;56.232;43.944;2022-12-10T05:56:06;99339.91;;;-4.70;86.02
69980;BME280;57318;56.232;43.944;2022-12-10T05:58:32;99347.66;;;-4.68;86.45
69980;BME280;57318;56.232;43.944;2022-12-10T06:00:58;99375.31;;;-4.69;86.13
69980;BME280;57318;56.232;43.944;2022-12-10T06:03:25;99379.69;;;-4.71;85.83
69980;BME280;57318;56.232;43.944;2022-12-10T06:05:52;99381.44;;;-4.72;86.11
69980;BME280;57318;56.232;43.944;2022-12-10T06:08:17;99380.59;;;-4.74;86.40
69980;BME280;57318;56.232;43.944;2022-12-10T06:10:43;99365.91;;;-4.73;86.39
69980;BME280;57318;56.232;43.944;2022-12-10T06:13:08;99365.00;;;-4.72;86.20
69980;BME280;57318;56.232;43.944;2022-12-10T06:15:38;99359.78;;;-4.69;86.60
69980;BME280;57318;56.232;43.944;2022-12-10T06:18:04;99352.84;;;-4.68;86.07
69980;BME280;57318;56.232;43.944;2022-12-10T06:20:30;99348.47;;;-4.65;86.21
69980;BME280;57318;56.232;43.944;2022-12-10T06:22:56;99350.97;;;-4.60;85.90
69980;BME280;57318;56.232;43.944;2022-12-10T06:25:21;99350.03;;;-4.58;85.99
69980;BME280;57318;56.232;43.944;2022-12-10T06:27:47;99352.66;;;-4.59;85.50
69980;BME280;57318;56.232;43.944;2022-12-10T06:30:12;99366.47;;;-4.57;85.51
69980;BME280;57318;56.232;43.944;2022-12-10T06:32:38;99369.91;;;-4.57;85.63
69980;BME280;57318;56.232;43.944;2022-12-10T06:35:05;99374.22;;;-4.56;85.88
69980;BME280;57318;56.232;43.944;2022-12-10T06:37:30;99375.13;;;-4.58;85.63
69980;BME280;57318;56.232;43.944;2022-12-10T06:39:56;99356.91;;;-4.55;85.73
69980;BME280;57318;56.232;43.944;2022-12-10T06:42:21;99362.09;;;-4.55;85.80
69980;BME280;57318;56.232;43.944;2022-12-10T06:44:47;99375.84;;;-4.51;85.50
69980;BME280;57318;56.232;43.944;2022-12-10T06:47:13;99365.56;;;-4.56;85.72
69980;BME280;57318;56.232;43.944;2022-12-10T06:49:40;99359.44;;;-4.52;85.59
69980;BME280;57318;56.232;43.944;2022-12-10T06:52:06;99359.34;;;-4.47;85.21
69980;BME280;57318;56.232;43.944;2022-12-10T06:54:31;99354.19;;;-4.49;85.39
69980;BME280;57318;56.232;43.944;2022-12-10T06:56:57;99366.28;;;-4.48;85.40
69980;BME280;57318;56.232;43.944;2022-12-10T06:59:23;99368.91;;;-4.49;85.59
69980;BME280;57318;56.232;43.944;2022-12-10T07:01:48;99364.56;;;-4.49;85.66
69980;BME280;57318;56.232;43.944;2022-12-10T07:04:14;99371.47;;;-4.48;85.59
69980;BME280;57318;56.232;43.944;2022-12-10T07:06:40;99376.66;;;-4.48;85.33
69980;BME280;57318;56.232;43.944;2022-12-10T07:09:06;99379.25;;;-4.48;85.46
69980;BME280;57318;56.232;43.944;2022-12-10T07:11:32;99373.13;;;-4.45;85.48
69980;BME280;57318;56.232;43.944;2022-12-10T07:13:58;99381.72;;;-4.43;85.29
69980;BME280;57318;56.232;43.944;2022-12-10T07:16:26;99382.63;;;-4.44;85.57
69980;BME280;57318;56.232;43.944;2022-12-10T07:18:54;99384.25;;;-4.40;85.23
69980;BME280;57318;56.232;43.944;2022-12-10T07:23:47;99374.72;;;-4.37;85.35
69980;BME280;57318;56.232;43.944;2022-12-10T07:26:13;99358.22;;;-4.36;85.03
69980;BME280;57318;56.232;43.944;2022-12-10T07:28:39;99369.53;;;-4.37;85.40
69980;BME280;57318;56.232;43.944;2022-12-10T07:31:07;99368.66;;;-4.37;85.32
69980;BME280;57318;56.232;43.944;2022-12-10T07:33:33;99373.03;;;-4.41;85.50
69980;BME280;57318;56.232;43.944;2022-12-10T07:36:03;99374.72;;;-4.37;85.34
69980;BME280;57318;56.232;43.944;2022-12-10T07:38:28;99367.78;;;-4.38;85.34
69980;BME280;57318;56.232;43.944;2022-12-10T07:40:54;99371.28;;;-4.40;85.54
69980;BME280;57318;56.232;43.944;2022-12-10T07:43:19;99371.19;;;-4.36;85.63
69980;BME280;57318;56.232;43.944;2022-12-10T07:45:45;99364.38;;;-4.40;85.63
69980;BME280;57318;56.232;43.944;2022-12-10T07:48:10;99362.59;;;-4.36;85.56
69980;BME280;57318;56.232;43.944;2022-12-10T07:50:36;99375.53;;;-4.35;85.92
69980;BME280;57318;56.232;43.944;2022-12-10T07:53:02;99372.94;;;-4.35;85.46
69980;BME280;57318;56.232;43.944;2022-12-10T07:55:27;99363.41;;;-4.36;85.63
69980;BME280;57318;56.232;43.944;2022-12-10T07:57:53;99352.09;;;-4.31;85.39
69980;BME280;57318;56.232;43.944;2022-12-10T08:00:18;99375.47;;;-4.31;85.78
69980;BME280;57318;56.232;43.944;2022-12-10T08:02:44;99369.38;;;-4.29;85.83
69980;BME280;57318;56.232;43.944;2022-12-10T08:05:10;99366.75;;;-4.27;85.61
69980;BME280;57318;56.232;43.944;2022-12-10T08:07:36;99361.53;;;-4.26;85.80
69980;BME280;57318;56.232;43.944;2022-12-10T08:10:02;99361.53;;;-4.26;85.75
69980;BME280;57318;56.232;43.944;2022-12-10T08:12:28;99357.19;;;-4.25;85.76
69980;BME280;57318;56.232;43.944;2022-12-10T08:14:54;99358.00;;;-4.25;85.50
69980;BME280;57318;56.232;43.944;2022-12-10T08:17:19;99354.56;;;-4.25;85.67
69980;BME280;57318;56.232;43.944;2022-12-10T08:19:45;99353.69;;;-4.24;85.44
69980;BME280;57318;56.232;43.944;2022-12-10T08:22:10;99353.69;;;-4.24;85.58
69980;BME280;57318;56.232;43.944;2022-12-10T08:24:37;99351.91;;;-4.22;85.72
69980;BME280;57318;56.232;43.944;2022-12-10T08:27:02;99353.63;;;-4.21;85.79
69980;BME280;57318;56.232;43.944;2022-12-10T08:29:28;99354.47;;;-4.21;85.89
69980;BME280;57318;56.232;43.944;2022-12-10T08:31:53;99367.34;;;-4.14;85.34
69980;BME280;57318;56.232;43.944;2022-12-10T08:34:19;99367.25;;;-4.11;85.24
69980;BME280;57318;56.232;43.944;2022-12-10T08:36:45;99360.38;;;-4.14;85.59
69980;BME280;57318;56.232;43.944;2022-12-10T08:39:11;99370.69;;;-4.11;85.60
69980;BME280;57318;56.232;43.944;2022-12-10T08:41:41;99366.25;;;-4.06;85.72
69980;BME280;57318;56.232;43.944;2022-12-10T08:44:07;99362.78;;;-4.05;85.18
69980;BME280;57318;56.232;43.944;2022-12-10T08:46:33;99354.03;;;-3.99;85.17
69980;BME280;57318;56.232;43.944;2022-12-10T08:48:59;99347.81;;;-3.93;85.06
69980;BME280;57318;56.232;43.944;2022-12-10T08:51:30;99351.28;;;-3.93;85.13
69980;BME280;57318;56.232;43.944;2022-12-10T08:53:56;99352.88;;;-3.87;85.07
69980;BME280;57318;56.232;43.944;2022-12-10T08:56:22;99347.66;;;-3.86;84.62
69980;BME280;57318;56.232;43.944;2022-12-10T08:58:47;99337.09;;;-3.78;84.69
69980;BME280;57318;56.232;43.944;2022-12-10T09:01:16;99336.25;;;-3.78;84.38
69980;BME280;57318;56.232;43.944;2022-12-10T09:03:41;99331.84;;;-3.75;84.27
69980;BME280;57318;56.232;43.944;2022-12-10T09:06:10;99330.13;;;-3.76;84.29
69980;BME280;57318;56.232;43.944;2022-12-10T09:08:36;99330.13;;;-3.76;84.15
69980;BME280;57318;56.232;43.944;2022-12-10T09:11:16;99325.06;;;-3.82;84.05
69980;BME280;57318;56.232;43.944;2022-12-10T09:13:43;99341.50;;;-3.82;84.48
69980;BME280;57318;56.232;43.944;2022-12-10T09:16:08;99339.84;;;-3.84;84.54
69980;BME280;57318;56.232;43.944;2022-12-10T09:18:34;99345.13;;;-3.89;84.60
69980;BME280;57318;56.232;43.944;2022-12-10T09:21:04;99341.66;;;-3.88;84.68
69980;BME280;57318;56.232;43.944;2022-12-10T09:23:30;99354.66;;;-3.89;85.23
69980;BME280;57318;56.232;43.944;2022-12-10T09:25:55;99347.75;;;-3.90;84.85
69980;BME280;57318;56.232;43.944;2022-12-10T09:28:21;99341.78;;;-3.94;85.22
69980;BME280;57318;56.232;43.944;2022-12-10T09:30:58;99350.41;;;-3.93;85.18
69980;BME280;57318;56.232;43.944;2022-12-10T09:33:26;99340.94;;;-3.94;84.92
69980;BME280;57318;56.232;43.944;2022-12-10T09:35:51;99346.06;;;-3.91;85.04
69980;BME280;57318;56.232;43.944;2022-12-10T09:38:17;99346.94;;;-3.92;85.00
69980;BME280;57318;56.232;43.944;2022-12-10T09:45:58;99333.03;;;-3.88;85.19
69980;BME280;57318;56.232;43.944;2022-12-10T09:48:47;99327.72;;;-3.85;85.41
69980;BME280;57318;56.232;43.944;2022-12-10T09:53:46;99325.06;;;-3.82;85.28
69980;BME280;57318;56.232;43.944;2022-12-10T09:56:23;99328.44;;;-3.77;84.91
69980;BME280;57318;56.232;43.944;2022-12-10T09:58:52;99321.59;;;-3.81;85.35
69980;BME280;57318;56.232;43.944;2022-12-10T10:01:20;99312.00;;;-3.79;85.02
69980;BME280;57318;56.232;43.944;2022-12-10T10:03:48;99304.16;;;-3.76;85.15
69980;BME280;57318;56.232;43.944;2022-12-10T10:06:15;99314.56;;;-3.77;85.14
69980;BME280;57318;56.232;43.944;2022-12-10T10:08:45;99319.75;;;-3.77;85.17
69980;BME280;57318;56.232;43.944;2022-12-10T10:11:33;99324.97;;;-3.77;85.21
69980;BME280;57318;56.232;43.944;2022-12-10T10:16:49;99327.56;;;-3.77;85.81
69980;BME280;57318;56.232;43.944;2022-12-10T10:19:21;99328.47;;;-3.78;85.55
69980;BME280;57318;56.232;43.944;2022-12-10T10:21:49;99316.38;;;-3.79;85.96
69980;BME280;57318;56.232;43.944;2022-12-10T10:24:25;99317.31;;;-3.84;86.08
69980;BME280;57318;56.232;43.944;2022-12-10T10:26:57;99313.75;;;-3.79;86.00
69980;BME280;57318;56.232;43.944;2022-12-10T10:29:26;99312.84;;;-3.77;85.79
69980;BME280;57318;56.232;43.944;2022-12-10T10:32:20;99326.59;;;-3.73;85.75
69980;BME280;57318;56.232;43.944;2022-12-10T10:34:52;99312.75;;;-3.72;86.09
69980;BME280;57318;56.232;43.944;2022-12-10T10:37:25;99329.16;;;-3.72;86.08
69980;BME280;57318;56.232;43.944;2022-12-10T10:39:52;99317.91;;;-3.71;85.94
69980;BME280;57318;56.232;43.944;2022-12-10T10:44:59;99311.00;;;-3.72;85.93
69980;BME280;57318;56.232;43.944;2022-12-10T10:47:30;99319.66;;;-3.73;85.95
69980;BME280;57318;56.232;43.944;2022-12-10T10:49:56;99309.22;;;-3.71;85.89
69980;BME280;57318;56.232;43.944;2022-12-10T10:52:22;99314.38;;;-3.70;86.01
69980;BME280;57318;56.232;43.944;2022-12-10T10:54:48;99311.84;;;-3.71;86.15
69980;BME280;57318;56.232;43.944;2022-12-10T10:57:36;99306.59;;;-3.70;86.15
69980;BME280;57318;56.232;43.944;2022-12-10T11:00:20;99301.34;;;-3.67;86.10
69980;BME280;57318;56.232;43.944;2022-12-10T11:02:47;99304.91;;;-3.71;85.93
69980;BME280;57318;56.232;43.944;2022-12-10T11:05:21;99300.47;;;-3.66;86.05
69980;BME280;57318;56.232;43.944;2022-12-10T11:07:58;99285.78;;;-3.68;86.17
69980;BME280;57318;56.232;43.944;2022-12-10T11:10:25;99291.91;;;-3.69;86.04
69980;BME280;57318;56.232;43.944;2022-12-10T11:15:36;99297.88;;;-3.66;86.33
69980;BME280;57318;56.232;43.944;2022-12-10T11:18:18;99299.56;;;-3.65;86.16
69980;BME280;57318;56.232;43.944;2022-12-10T11:21:00;99303.84;;;-3.64;86.26
69980;BME280;57318;56.232;43.944;2022-12-10T11:23:35;99300.38;;;-3.63;86.45
69980;BME280;57318;56.232;43.944;2022-12-10T11:31:57;99325.47;;;-3.61;86.61
69980;BME280;57318;56.232;43.944;2022-12-10T11:37:34;99316.03;;;-3.66;86.87
69980;BME280;57318;56.232;43.944;2022-12-10T11:50:43;99314.28;;;-3.65;86.85
69980;BME280;57318;56.232;43.944;2022-12-10T11:56:21;99319.59;;;-3.70;87.34
69980;BME280;57318;56.232;43.944;2022-12-10T11:59:14;99320.38;;;-3.66;87.43
69980;BME280;57318;56.232;43.944;2022-12-10T12:05:07;99327.28;;;-3.65;87.21
69980;BME280;57318;56.232;43.944;2022-12-10T12:08:09;99327.22;;;-3.64;87.17
69980;BME280;57318;56.232;43.944;2022-12-10T12:13:23;99332.47;;;-3.65;87.43
69980;BME280;57318;56.232;43.944;2022-12-10T12:16:08;99324.72;;;-3.67;87.47
69980;BME280;57318;56.232;43.944;2022-12-10T12:18:45;99323.16;;;-3.74;87.84
69980;BME280;57318;56.232;43.944;2022-12-10T12:21:14;99316.13;;;-3.69;87.80
69980;BME280;57318;56.232;43.944;2022-12-10T12:26:38;99317.75;;;-3.65;87.68
69980;BME280;57318;56.232;43.944;2022-12-10T12:29:25;99305.56;;;-3.63;87.67
69980;BME280;57318;56.232;43.944;2022-12-10T12:32:15;99314.25;;;-3.64;87.88
69980;BME280;57318;56.232;43.944;2022-12-10T12:35:00;99317.69;;;-3.61;87.75
69980;BME280;57318;56.232;43.944;2022-12-10T12:37:36;99313.38;;;-3.63;87.69
69980;BME280;57318;56.232;43.944;2022-12-10T12:40:13;99325.47;;;-3.61;87.72
69980;BME280;57318;56.232;43.944;2022-12-10T12:42:46;99330.56;;;-3.58;87.65
69980;BME280;57318;56.232;43.944;2022-12-10T12:51:00;99340.00;;;-3.54;87.57
69980;BME280;57318;56.232;43.944;2022-12-10T12:53:27;99333.94;;;-3.53;87.89
69980;BME280;57318;56.232;43.944;2022-12-10T12:56:17;99325.22;;;-3.52;87.80
69980;BME280;57318;56.232;43.944;2022-12-10T12:59:06;99320.00;;;-3.51;87.76
69980;BME280;57318;56.232;43.944;2022-12-10T13:01:53;99321.78;;;-3.53;87.91
69980;BME280;57318;56.232;43.944;2022-12-10T13:04:22;99320.03;;;-3.52;87.99
69980;BME280;57318;56.232;43.944;2022-12-10T13:09:47;99315.75;;;-3.53;88.29
69980;BME280;57318;56.232;43.944;2022-12-10T13:12:28;99311.44;;;-3.54;88.32
69980;BME280;57318;56.232;43.944;2022-12-10T13:15:03;99309.81;;;-3.60;88.45
69980;BME280;57318;56.232;43.944;2022-12-10T13:17:33;99314.03;;;-3.54;88.29
69980;BME280;57318;56.232;43.944;2022-12-10T13:28:49;99308.84;;;-3.54;88.68
69980;BME280;57318;56.232;43.944;2022-12-10T13:39:11;99297.59;;;-3.55;88.83
69980;BME280;57318;56.232;43.944;2022-12-10T13:44:48;99301.13;;;-3.57;88.72
69980;BME280;57318;56.232;43.944;2022-12-10T13:50:14;99300.97;;;-3.51;89.00
69980;BME280;57318;56.232;43.944;2022-12-10T13:58:09;99287.91;;;-3.48;88.97
69980;BME280;57318;56.232;43.944;2022-12-10T14:03:35;99293.97;;;-3.49;89.33
69980;BME280;57318;56.232;43.944;2022-12-10T14:06:21;99295.72;;;-3.50;89.16
69980;BME280;57318;56.232;43.944;2022-12-10T14:11:28;99293.13;;;-3.50;89.00
69980;BME280;57318;56.232;43.944;2022-12-10T14:13:57;99285.34;;;-3.50;89.15
69980;BME280;57318;56.232;43.944;2022-12-10T14:16:27;99281.00;;;-3.49;89.36
69980;BME280;57318;56.232;43.944;2022-12-10T14:19:04;99282.75;;;-3.50;89.05
69980;BME280;57318;56.232;43.944;2022-12-10T14:21:35;99271.50;;;-3.50;89.35
69980;BME280;57318;56.232;43.944;2022-12-10T14:24:01;99271.59;;;-3.53;89.18
69980;BME280;57318;56.232;43.944;2022-12-10T14:26:33;99266.31;;;-3.50;89.30
69980;BME280;57318;56.232;43.944;2022-12-10T14:29:20;99274.03;;;-3.47;89.31
69980;BME280;57318;56.232;43.944;2022-12-10T14:31:49;99260.13;;;-3.46;89.32
69980;BME280;57318;56.232;43.944;2022-12-10T14:34:23;99263.81;;;-3.53;89.06
69980;BME280;57318;56.232;43.944;2022-12-10T14:36:58;99262.84;;;-3.51;89.17
69980;BME280;57318;56.232;43.944;2022-12-10T14:39:29;99265.25;;;-3.43;89.00
69980;BME280;57318;56.232;43.944;2022-12-10T14:41:57;99260.06;;;-3.43;89.16
69980;BME280;57318;56.232;43.944;2022-12-10T14:44:24;99263.50;;;-3.41;89.34
69980;BME280;57318;56.232;43.944;2022-12-10T14:46:51;99256.66;;;-3.45;89.10
69980;BME280;57318;56.232;43.944;2022-12-10T14:49:26;99252.34;;;-3.46;89.12
69980;BME280;57318;56.232;43.944;2022-12-10T14:51:52;99258.41;;;-3.46;89.08
69980;BME280;57318;56.232;43.944;2022-12-10T14:54:33;99255.84;;;-3.47;89.31
69980;BME280;57318;56.232;43.944;2022-12-10T14:57:04;99260.13;;;-3.46;89.14
69980;BME280;57318;56.232;43.944;2022-12-10T15:00:20;99258.44;;;-3.47;89.38